createdAt,value
2022-12-16T00:00:55.525Z,1013.74
2022-12-16T00:01:55.686Z,1013.79
2022-12-16T00:02:55.834Z,1013.82
2022-12-16T00:03:55.956Z,1013.75
2022-12-16T00:04:56.135Z,1013.77
2022-12-16T00:05:56.363Z,1013.74
2022-12-16T00:06:56.482Z,1013.74
2022-12-16T00:07:56.683Z,1013.71
2022-12-16T00:08:56.840Z,1013.74
2022-12-16T00:09:57.056Z,1013.70
2022-12-16T00:10:57.212Z,1013.72
2022-12-16T00:11:57.393Z,1013.72
2022-12-16T00:12:57.601Z,1013.72
2022-12-16T00:13:57.751Z,1013.70
2022-12-16T00:14:57.938Z,1013.65
2022-12-16T00:15:58.167Z,1013.66
2022-12-16T00:16:58.300Z,1013.68
2022-12-16T00:17:58.514Z,1013.76
2022-12-16T00:18:58.665Z,1013.77
2022-12-16T00:19:58.847Z,1013.73
2022-12-16T00:20:59.030Z,1013.76
2022-12-16T00:21:59.230Z,1013.81
2022-12-16T00:22:59.399Z,1013.79
2022-12-16T00:23:59.550Z,1013.80
2022-12-16T00:24:59.739Z,1013.79
2022-12-16T00:25:59.926Z,1013.81
2022-12-16T00:27:00.109Z,1013.87
2022-12-16T00:28:00.651Z,1013.87
2022-12-16T00:29:00.478Z,1013.87
2022-12-16T00:30:00.628Z,1013.88
2022-12-16T00:31:00.808Z,1013.85
2022-12-16T00:32:01.080Z,1013.86
2022-12-16T00:33:01.192Z,1013.87
2022-12-16T00:34:01.344Z,1013.87
2022-12-16T00:35:01.517Z,1013.86
2022-12-16T00:36:01.710Z,1013.86
2022-12-16T00:37:01.896Z,1013.91
2022-12-16T00:38:02.096Z,1013.92
2022-12-16T00:39:02.256Z,1013.89
2022-12-16T00:40:02.435Z,1014.01
2022-12-16T00:41:02.639Z,1014.04
2022-12-16T00:42:02.806Z,1014.03
2022-12-16T00:43:03.021Z,1014.04
2022-12-16T00:44:03.167Z,1014.07
2022-12-16T00:45:03.356Z,1014.09
2022-12-16T00:46:03.606Z,1014.05
2022-12-16T00:47:03.718Z,1014.06
2022-12-16T00:48:03.906Z,1014.08
2022-12-16T00:49:04.124Z,1014.06
2022-12-16T00:50:04.285Z,1014.04
2022-12-16T00:51:04.484Z,1014.09
2022-12-16T00:52:04.760Z,1014.08
2022-12-16T00:53:04.809Z,1014.10
2022-12-16T00:54:05.006Z,1014.09
2022-12-16T00:55:05.153Z,1014.14
2022-12-16T00:56:05.341Z,1014.10
2022-12-16T00:57:05.536Z,1014.13
2022-12-16T00:58:05.702Z,1014.09
2022-12-16T00:59:05.853Z,1014.06
2022-12-16T01:00:06.041Z,1014.01
2022-12-16T01:01:06.342Z,1014.00
2022-12-16T01:02:06.609Z,1014.02
2022-12-16T01:03:06.851Z,1013.99
2022-12-16T01:04:06.757Z,1013.98
2022-12-16T01:05:06.911Z,1013.94
2022-12-16T01:06:07.101Z,1013.93
2022-12-16T01:07:07.292Z,1013.93
2022-12-16T01:08:07.487Z,1013.94
2022-12-16T01:09:07.650Z,1013.91
2022-12-16T01:10:07.811Z,1013.91
2022-12-16T01:11:07.993Z,1013.96
2022-12-16T01:12:08.158Z,1013.97
2022-12-16T01:13:08.371Z,1014.01
2022-12-16T01:14:08.528Z,1014.01
2022-12-16T01:15:08.708Z,1013.98
2022-12-16T01:16:08.965Z,1014.00
2022-12-16T01:17:09.048Z,1014.04
2022-12-16T01:18:09.257Z,1014.00
2022-12-16T01:19:09.407Z,1014.04
2022-12-16T01:20:09.595Z,1014.10
2022-12-16T01:21:09.777Z,1014.08
2022-12-16T01:22:09.959Z,1014.05
2022-12-16T01:23:10.146Z,1014.06
2022-12-16T01:24:10.344Z,1014.03
2022-12-16T01:25:10.487Z,1014.02
2022-12-16T01:26:10.684Z,1014.03
2022-12-16T01:27:10.907Z,1014.01
2022-12-16T01:28:11.055Z,1014.04
2022-12-16T01:29:11.205Z,1014.05
2022-12-16T01:30:11.401Z,1014.09
2022-12-16T01:31:11.639Z,1014.03
2022-12-16T01:32:11.782Z,1014.00
2022-12-16T01:33:11.923Z,1014.03
2022-12-16T01:34:12.129Z,1014.04
2022-12-16T01:35:36.411Z,1013.99
2022-12-16T01:36:13.443Z,1014.03
2022-12-16T01:37:12.624Z,1013.98
2022-12-16T01:38:12.814Z,1013.97
2022-12-16T01:39:12.974Z,1013.96
2022-12-16T01:40:13.164Z,1013.96
2022-12-16T01:41:13.352Z,1013.95
2022-12-16T01:42:13.513Z,1013.97
2022-12-16T01:43:13.713Z,1013.96
2022-12-16T01:44:13.864Z,1013.92
2022-12-16T01:45:14.043Z,1013.90
2022-12-16T01:46:14.288Z,1013.93
2022-12-16T01:47:14.404Z,1013.94
2022-12-16T01:48:14.598Z,1013.95
2022-12-16T01:49:14.786Z,1013.95
2022-12-16T01:50:14.970Z,1013.93
2022-12-16T01:51:15.168Z,1013.98
2022-12-16T01:52:15.331Z,1013.96
2022-12-16T01:53:15.511Z,1013.96
2022-12-16T01:54:15.683Z,1014.03
2022-12-16T01:55:15.851Z,1014.01
2022-12-16T01:56:16.040Z,1014.03
2022-12-16T01:57:16.226Z,1014.02
2022-12-16T01:58:16.439Z,1014.02
2022-12-16T01:59:16.580Z,1014.04
2022-12-16T02:00:16.770Z,1014.06
2022-12-16T02:01:17.015Z,1014.02
2022-12-16T02:02:17.253Z,1014.01
2022-12-16T02:03:17.417Z,1013.97
2022-12-16T02:04:17.489Z,1014.00
2022-12-16T02:05:17.669Z,1013.99
2022-12-16T02:06:17.869Z,1013.95
2022-12-16T02:07:18.037Z,1013.97
2022-12-16T02:08:18.200Z,1013.94
2022-12-16T02:09:18.360Z,1013.94
2022-12-16T02:10:18.548Z,1013.97
2022-12-16T02:11:18.706Z,1013.98
2022-12-16T02:12:18.938Z,1014.00
2022-12-16T02:13:19.077Z,1013.97
2022-12-16T02:14:19.227Z,1014.00
2022-12-16T02:15:19.422Z,1013.99
2022-12-16T02:16:19.716Z,1014.00
2022-12-16T02:17:19.837Z,1014.04
2022-12-16T02:18:19.977Z,1014.00
2022-12-16T02:19:20.127Z,1014.00
2022-12-16T02:20:20.323Z,1013.97
2022-12-16T02:21:20.483Z,1014.00
2022-12-16T02:22:20.675Z,1013.98
2022-12-16T02:23:20.838Z,1013.99
2022-12-16T02:24:21.023Z,1013.99
2022-12-16T02:25:21.207Z,1014.01
2022-12-16T02:26:21.394Z,1013.97
2022-12-16T02:27:21.577Z,1014.02
2022-12-16T02:28:21.765Z,1014.00
2022-12-16T02:29:21.963Z,1014.00
2022-12-16T02:30:22.154Z,1013.99
2022-12-16T02:31:22.492Z,1013.98
2022-12-16T02:32:22.504Z,1013.99
2022-12-16T02:33:22.666Z,1013.97
2022-12-16T02:34:22.813Z,1013.96
2022-12-16T02:35:22.992Z,1014.01
2022-12-16T02:36:23.186Z,1013.98
2022-12-16T02:37:23.366Z,1013.97
2022-12-16T02:38:23.553Z,1014.00
2022-12-16T02:39:23.742Z,1014.00
2022-12-16T02:40:23.923Z,1013.97
2022-12-16T02:41:24.111Z,1014.00
2022-12-16T02:42:24.308Z,1013.97
2022-12-16T02:43:24.457Z,1013.96
2022-12-16T02:44:24.663Z,1013.98
2022-12-16T02:45:24.806Z,1013.92
2022-12-16T02:46:24.981Z,1013.89
2022-12-16T02:47:25.149Z,1013.90
2022-12-16T02:48:25.360Z,1013.87
2022-12-16T02:49:25.509Z,1013.88
2022-12-16T02:50:25.701Z,1013.88
2022-12-16T02:51:25.889Z,1013.91
2022-12-16T02:52:26.165Z,1013.89
2022-12-16T02:53:26.275Z,1013.87
2022-12-16T02:54:26.426Z,1013.89
2022-12-16T02:55:26.608Z,1013.86
2022-12-16T02:56:26.802Z,1013.82
2022-12-16T02:57:26.977Z,1013.87
2022-12-16T02:58:27.199Z,1013.88
2022-12-16T02:59:27.328Z,1013.86
2022-12-16T03:00:27.518Z,1013.84
2022-12-16T03:01:27.816Z,1013.86
2022-12-16T03:02:28.020Z,1013.85
2022-12-16T03:03:28.096Z,1013.89
2022-12-16T03:04:28.207Z,1013.89
2022-12-16T03:05:28.389Z,1013.88
2022-12-16T03:06:28.582Z,1013.82
2022-12-16T03:07:28.763Z,1013.83
2022-12-16T03:08:28.973Z,1013.85
2022-12-16T03:09:29.117Z,1013.83
2022-12-16T03:10:29.303Z,1013.82
2022-12-16T03:11:29.485Z,1013.82
2022-12-16T03:12:29.675Z,1013.84
2022-12-16T03:13:30.145Z,1013.83
2022-12-16T03:14:30.048Z,1013.79
2022-12-16T03:15:30.201Z,1013.78
2022-12-16T03:16:30.452Z,1013.77
2022-12-16T03:17:30.552Z,1013.80
2022-12-16T03:18:30.743Z,1013.77
2022-12-16T03:19:30.906Z,1013.75
2022-12-16T03:20:31.062Z,1013.75
2022-12-16T03:21:31.254Z,1013.77
2022-12-16T03:22:31.450Z,1013.74
2022-12-16T03:23:31.899Z,1013.75
2022-12-16T03:24:31.802Z,1013.70
2022-12-16T03:25:31.951Z,1013.72
2022-12-16T03:26:32.149Z,1013.71
2022-12-16T03:27:32.291Z,1013.69
2022-12-16T03:28:32.512Z,1013.73
2022-12-16T03:29:32.661Z,1013.72
2022-12-16T03:30:32.878Z,1013.72
2022-12-16T03:31:33.061Z,1013.73
2022-12-16T03:32:33.199Z,1013.71
2022-12-16T03:33:33.976Z,1013.68
2022-12-16T03:34:33.535Z,1013.69
2022-12-16T03:35:33.729Z,1013.66
2022-12-16T03:36:33.880Z,1013.65
2022-12-16T03:37:34.067Z,1013.65
2022-12-16T03:38:34.288Z,1013.64
2022-12-16T03:39:34.440Z,1013.63
2022-12-16T03:40:34.637Z,1013.67
2022-12-16T03:41:34.788Z,1013.63
2022-12-16T03:42:34.977Z,1013.61
2022-12-16T03:43:35.438Z,1013.63
2022-12-16T03:44:35.315Z,1013.62
2022-12-16T03:45:35.481Z,1013.61
2022-12-16T03:46:35.691Z,1013.69
2022-12-16T03:47:35.808Z,1013.65
2022-12-16T03:48:36.028Z,1013.65
2022-12-16T03:49:36.177Z,1013.70
2022-12-16T03:50:36.364Z,1013.66
2022-12-16T03:51:36.563Z,1013.67
2022-12-16T03:52:36.747Z,1013.67
2022-12-16T03:53:36.933Z,1013.68
2022-12-16T03:54:37.105Z,1013.68
2022-12-16T03:55:37.274Z,1013.67
2022-12-16T03:56:37.455Z,1013.68
2022-12-16T03:57:37.637Z,1013.68
2022-12-16T03:58:37.836Z,1013.68
2022-12-16T03:59:37.984Z,1013.69
2022-12-16T04:00:38.176Z,1013.70
2022-12-16T04:01:38.471Z,1013.66
2022-12-16T04:02:38.713Z,1013.68
2022-12-16T04:03:38.766Z,1013.66
2022-12-16T04:04:38.893Z,1013.72
2022-12-16T04:05:39.045Z,1013.70
2022-12-16T04:06:39.243Z,1013.73
2022-12-16T04:07:39.431Z,1013.73
2022-12-16T04:08:39.592Z,1013.72
2022-12-16T04:09:39.753Z,1013.75
2022-12-16T04:10:39.942Z,1013.73
2022-12-16T04:11:40.091Z,1013.75
2022-12-16T04:12:40.278Z,1013.76
2022-12-16T04:13:40.480Z,1013.74
2022-12-16T04:14:40.639Z,1013.74
2022-12-16T04:15:40.841Z,1013.78
2022-12-16T04:16:40.989Z,1013.77
2022-12-16T04:17:41.143Z,1013.80
2022-12-16T04:18:41.355Z,1013.85
2022-12-16T04:19:41.528Z,1013.86
2022-12-16T04:20:41.670Z,1013.88
2022-12-16T04:21:41.858Z,1013.87
2022-12-16T04:22:42.039Z,1013.90
2022-12-16T04:23:42.220Z,1013.92
2022-12-16T04:24:42.429Z,1013.92
2022-12-16T04:25:42.589Z,1013.86
2022-12-16T04:26:42.775Z,1013.85
2022-12-16T04:27:42.979Z,1013.83
2022-12-16T04:28:43.147Z,1013.86
2022-12-16T04:29:43.305Z,1013.85
2022-12-16T04:30:43.525Z,1013.88
2022-12-16T04:31:43.687Z,1013.91
2022-12-16T04:32:43.808Z,1013.92
2022-12-16T04:33:44.007Z,1013.91
2022-12-16T04:34:44.167Z,1013.96
2022-12-16T04:35:44.349Z,1013.92
2022-12-16T04:36:44.539Z,1013.88
2022-12-16T04:37:44.733Z,1013.90
2022-12-16T04:38:44.925Z,1013.90
2022-12-16T04:39:45.077Z,1013.93
2022-12-16T04:40:45.254Z,1013.90
2022-12-16T04:41:45.442Z,1013.94
2022-12-16T04:42:45.604Z,1014.02
2022-12-16T04:43:45.814Z,1014.03
2022-12-16T04:44:45.956Z,1014.03
2022-12-16T04:45:46.153Z,1014.00
2022-12-16T04:46:46.364Z,1014.01
2022-12-16T04:47:46.475Z,1014.03
2022-12-16T04:48:46.664Z,1014.07
2022-12-16T04:49:46.848Z,1014.05
2022-12-16T04:50:46.992Z,1014.08
2022-12-16T04:51:47.175Z,1014.06
2022-12-16T04:52:47.352Z,1014.08
2022-12-16T04:53:47.548Z,1014.12
2022-12-16T04:54:47.742Z,1014.08
2022-12-16T04:55:47.911Z,1014.09
2022-12-16T04:56:48.060Z,1014.11
2022-12-16T04:57:48.255Z,1014.11
2022-12-16T04:58:48.461Z,1014.15
2022-12-16T04:59:48.620Z,1014.11
2022-12-16T05:00:48.815Z,1014.09
2022-12-16T05:01:49.108Z,1014.09
2022-12-16T05:02:49.236Z,1014.15
2022-12-16T05:03:49.437Z,1014.10
2022-12-16T05:04:49.552Z,1014.07
2022-12-16T05:05:49.693Z,1014.09
2022-12-16T05:06:49.878Z,1014.10
2022-12-16T05:07:50.069Z,1014.05
2022-12-16T05:08:50.249Z,1014.08
2022-12-16T05:09:50.449Z,1014.06
2022-12-16T05:10:50.595Z,1014.05
2022-12-16T05:11:50.810Z,1014.06
2022-12-16T05:12:50.961Z,1014.11
2022-12-16T05:13:51.178Z,1014.09
2022-12-16T05:14:51.328Z,1014.09
2022-12-16T05:15:51.590Z,1014.10
2022-12-16T05:16:51.699Z,1014.10
2022-12-16T05:17:51.908Z,1014.12
2022-12-16T05:18:52.068Z,1014.18
2022-12-16T05:19:52.228Z,1014.14
2022-12-16T05:20:52.411Z,1014.16
2022-12-16T05:21:52.596Z,1014.19
2022-12-16T05:22:52.749Z,1014.17
2022-12-16T05:23:52.965Z,1014.25
2022-12-16T05:24:53.362Z,1014.21
2022-12-16T05:25:53.285Z,1014.20
2022-12-16T05:26:53.436Z,1014.21
2022-12-16T05:27:53.623Z,1014.16
2022-12-16T05:28:53.822Z,1014.20
2022-12-16T05:29:53.994Z,1014.21
2022-12-16T05:30:54.138Z,1014.22
2022-12-16T05:31:54.328Z,1014.20
2022-12-16T05:32:54.503Z,1014.20
2022-12-16T05:33:54.711Z,1014.19
2022-12-16T05:34:54.840Z,1014.21
2022-12-16T05:35:54.994Z,1014.20
2022-12-16T05:36:55.161Z,1014.19
2022-12-16T05:37:55.339Z,1014.18
2022-12-16T05:38:55.532Z,1014.23
2022-12-16T05:39:55.712Z,1014.25
2022-12-16T05:40:55.881Z,1014.25
2022-12-16T05:41:56.032Z,1014.26
2022-12-16T05:42:56.212Z,1014.25
2022-12-16T05:43:56.412Z,1014.27
2022-12-16T05:44:56.566Z,1014.26
2022-12-16T05:45:56.785Z,1014.26
2022-12-16T05:46:57.066Z,1014.35
2022-12-16T05:47:57.098Z,1014.36
2022-12-16T05:48:57.294Z,1014.39
2022-12-16T05:49:57.450Z,1014.38
2022-12-16T05:50:57.629Z,1014.41
2022-12-16T05:51:57.840Z,1014.43
2022-12-16T05:52:57.978Z,1014.41
2022-12-16T05:53:58.188Z,1014.39
2022-12-16T05:54:58.332Z,1014.42
2022-12-16T05:55:58.520Z,1014.43
2022-12-16T05:56:58.709Z,1014.41
2022-12-16T05:57:58.891Z,1014.45
2022-12-16T05:58:59.099Z,1014.46
2022-12-16T05:59:59.260Z,1014.50
2022-12-16T06:00:59.437Z,1014.52
2022-12-16T06:01:59.745Z,1014.57
2022-12-16T06:02:59.915Z,1014.60
2022-12-16T06:04:00.090Z,1014.60
2022-12-16T06:05:00.149Z,1014.64
2022-12-16T06:06:00.343Z,1014.61
2022-12-16T06:07:00.517Z,1014.61
2022-12-16T06:08:00.702Z,1014.69
2022-12-16T06:09:00.906Z,1014.66
2022-12-16T06:10:01.067Z,1014.76
2022-12-16T06:11:01.246Z,1014.74
2022-12-16T06:12:01.443Z,1014.87
2022-12-16T06:13:01.622Z,1014.84
2022-12-16T06:14:01.832Z,1014.84
2022-12-16T06:15:01.992Z,1014.88
2022-12-16T06:16:08.150Z,1014.87
2022-12-16T06:17:03.325Z,1014.89
2022-12-16T06:18:02.506Z,1014.92
2022-12-16T06:19:02.720Z,1014.91
2022-12-16T06:20:02.894Z,1014.91
2022-12-16T06:21:03.034Z,1014.93
2022-12-16T06:22:03.230Z,1014.98
2022-12-16T06:23:03.402Z,1014.98
2022-12-16T06:24:03.655Z,1014.99
2022-12-16T06:25:03.766Z,1014.98
2022-12-16T06:26:03.955Z,1015.02
2022-12-16T06:27:04.102Z,1015.07
2022-12-16T06:28:04.293Z,1015.09
2022-12-16T06:29:04.485Z,1015.08
2022-12-16T06:30:04.639Z,1015.09
2022-12-16T06:31:04.866Z,1015.10
2022-12-16T06:32:05.041Z,1015.12
2022-12-16T06:33:05.164Z,1015.10
2022-12-16T06:34:05.332Z,1015.12
2022-12-16T06:35:05.501Z,1015.13
2022-12-16T06:36:05.660Z,1015.11
2022-12-16T06:37:05.843Z,1015.10
2022-12-16T06:38:06.035Z,1015.12
2022-12-16T06:39:06.238Z,1015.15
2022-12-16T06:40:06.399Z,1015.13
2022-12-16T06:41:06.574Z,1015.17
2022-12-16T06:42:06.742Z,1015.19
2022-12-16T06:43:06.918Z,1015.17
2022-12-16T06:44:07.088Z,1015.17
2022-12-16T06:45:07.241Z,1015.19
2022-12-16T06:46:07.466Z,1015.19
2022-12-16T06:47:07.598Z,1015.20
2022-12-16T06:48:07.818Z,1015.23
2022-12-16T06:49:07.985Z,1015.25
2022-12-16T06:50:08.130Z,1015.28
2022-12-16T06:51:08.317Z,1015.30
2022-12-16T06:52:08.500Z,1015.27
2022-12-16T06:53:08.690Z,1015.28
2022-12-16T06:54:08.846Z,1015.29
2022-12-16T06:55:08.976Z,1015.33
2022-12-16T06:56:10.108Z,1015.32
2022-12-16T06:57:09.335Z,1015.34
2022-12-16T06:58:10.171Z,1015.33
2022-12-16T06:59:09.686Z,1015.32
2022-12-16T07:00:09.857Z,1015.37
2022-12-16T07:01:10.107Z,1015.36
2022-12-16T07:02:10.268Z,1015.40
2022-12-16T07:03:10.450Z,1015.41
2022-12-16T07:04:10.578Z,1015.40
2022-12-16T07:05:10.718Z,1015.49
2022-12-16T07:06:10.907Z,1015.43
2022-12-16T07:07:11.075Z,1015.45
2022-12-16T07:08:11.226Z,1015.43
2022-12-16T07:09:11.423Z,1015.43
2022-12-16T07:10:11.591Z,1015.48
2022-12-16T07:11:16.657Z,1015.51
2022-12-16T07:12:12.932Z,1015.51
2022-12-16T07:13:12.114Z,1015.56
2022-12-16T07:14:12.296Z,1015.56
2022-12-16T07:15:12.464Z,1015.59
2022-12-16T07:16:12.706Z,1015.59
2022-12-16T07:17:17.109Z,1015.64
2022-12-16T07:18:12.994Z,1015.68
2022-12-16T07:19:13.202Z,1015.69
2022-12-16T07:20:13.341Z,1015.72
2022-12-16T07:21:13.510Z,1015.74
2022-12-16T07:22:13.679Z,1015.75
2022-12-16T07:23:19.562Z,1015.82
2022-12-16T07:24:15.032Z,1015.81
2022-12-16T07:25:14.188Z,1015.81
2022-12-16T07:26:14.360Z,1015.80
2022-12-16T07:27:14.520Z,1015.83
2022-12-16T07:28:15.828Z,1015.81
2022-12-16T07:29:14.873Z,1015.86
2022-12-16T07:30:15.068Z,1015.89
2022-12-16T07:31:15.283Z,1015.87
2022-12-16T07:32:15.399Z,1015.90
2022-12-16T07:33:15.560Z,1015.98
2022-12-16T07:34:15.727Z,1015.95
2022-12-16T07:35:15.918Z,1015.97
2022-12-16T07:36:16.089Z,1016.05
2022-12-16T07:37:16.257Z,1016.06
2022-12-16T07:38:16.427Z,1016.12
2022-12-16T07:39:16.587Z,1016.16
2022-12-16T07:40:16.768Z,1016.15
2022-12-16T07:41:16.936Z,1016.17
2022-12-16T07:42:17.106Z,1016.18
2022-12-16T07:43:17.276Z,1016.22
2022-12-16T07:44:17.445Z,1016.23
2022-12-16T07:45:17.835Z,1016.20
2022-12-16T07:46:17.829Z,1016.20
2022-12-16T07:47:18.244Z,1016.18
2022-12-16T07:48:18.126Z,1016.21
2022-12-16T07:49:18.293Z,1016.20
2022-12-16T07:50:18.475Z,1016.23
2022-12-16T07:51:18.635Z,1016.25
2022-12-16T07:52:18.815Z,1016.30
2022-12-16T07:53:18.985Z,1016.30
2022-12-16T07:54:19.154Z,1016.30
2022-12-16T07:55:19.360Z,1016.31
2022-12-16T07:56:19.516Z,1016.40
2022-12-16T07:57:19.695Z,1016.37
2022-12-16T07:58:19.880Z,1016.38
2022-12-16T07:59:20.046Z,1016.38
2022-12-16T08:00:20.213Z,1016.36
2022-12-16T08:01:20.437Z,1016.40
2022-12-16T08:02:20.772Z,1016.40
2022-12-16T08:03:20.738Z,1016.43
2022-12-16T08:04:20.887Z,1016.45
2022-12-16T08:05:21.092Z,1016.45
2022-12-16T08:06:21.253Z,1016.44
2022-12-16T08:07:21.432Z,1016.38
2022-12-16T08:08:21.631Z,1016.40
2022-12-16T08:09:21.780Z,1016.44
2022-12-16T08:10:21.991Z,1016.47
2022-12-16T08:11:22.147Z,1016.40
2022-12-16T08:12:22.374Z,1016.45
2022-12-16T08:13:25.845Z,1016.46
2022-12-16T08:14:22.697Z,1016.48
2022-12-16T08:15:22.923Z,1016.48
2022-12-16T08:16:23.102Z,1016.50
2022-12-16T08:17:23.265Z,1016.53
2022-12-16T08:18:23.428Z,1016.55
2022-12-16T08:19:23.602Z,1016.57
2022-12-16T08:20:23.797Z,1016.59
2022-12-16T08:21:23.959Z,1016.60
2022-12-16T08:22:24.131Z,1016.64
2022-12-16T08:23:24.300Z,1016.66
2022-12-16T08:24:24.491Z,1016.65
2022-12-16T08:25:24.659Z,1016.71
2022-12-16T08:26:24.841Z,1016.70
2022-12-16T08:27:25.047Z,1016.65
2022-12-16T08:28:25.169Z,1016.61
2022-12-16T08:29:43.885Z,1016.68
2022-12-16T08:30:26.696Z,1016.62
2022-12-16T08:31:25.774Z,1016.64
2022-12-16T08:32:25.885Z,1016.70
2022-12-16T08:33:26.039Z,1016.68
2022-12-16T08:34:26.206Z,1016.69
2022-12-16T08:35:26.396Z,1016.65
2022-12-16T08:36:26.575Z,1016.64
2022-12-16T08:37:26.752Z,1016.66
2022-12-16T08:38:26.938Z,1016.67
2022-12-16T08:39:27.106Z,1016.68
2022-12-16T08:40:35.216Z,1016.68
2022-12-16T08:41:28.452Z,1016.65
2022-12-16T08:42:27.624Z,1016.69
2022-12-16T08:43:27.817Z,1016.68
2022-12-16T08:44:27.994Z,1016.70
2022-12-16T08:45:28.182Z,1016.72
2022-12-16T08:46:28.417Z,1016.72
2022-12-16T08:47:28.548Z,1016.71
2022-12-16T08:48:28.703Z,1016.74
2022-12-16T08:49:28.886Z,1016.73
2022-12-16T08:50:29.076Z,1016.71
2022-12-16T08:51:29.233Z,1016.73
2022-12-16T08:52:29.404Z,1016.72
2022-12-16T08:53:29.828Z,1016.74
2022-12-16T08:54:29.792Z,1016.74
2022-12-16T08:55:30.128Z,1016.75
2022-12-16T08:56:30.111Z,1016.73
2022-12-16T08:57:30.301Z,1016.76
2022-12-16T08:58:30.465Z,1016.76
2022-12-16T08:59:30.774Z,1016.68
2022-12-16T09:00:30.811Z,1016.72
2022-12-16T09:01:31.050Z,1016.67
2022-12-16T09:02:31.365Z,1016.71
2022-12-16T09:03:31.905Z,1016.70
2022-12-16T09:04:31.490Z,1016.71
2022-12-16T09:05:31.682Z,1016.70
2022-12-16T09:06:35.649Z,1016.68
2022-12-16T09:07:33.018Z,1016.63
2022-12-16T09:08:32.188Z,1016.65
2022-12-16T09:09:32.360Z,1016.61
2022-12-16T09:10:39.030Z,1016.56
2022-12-16T09:11:33.734Z,1016.59
2022-12-16T09:12:32.909Z,1016.59
2022-12-16T09:13:33.427Z,1016.59
2022-12-16T09:14:33.228Z,1016.59
2022-12-16T09:15:33.457Z,1016.58
2022-12-16T09:16:33.658Z,1016.55
2022-12-16T09:17:33.753Z,1016.52
2022-12-16T09:18:33.912Z,1016.57
2022-12-16T09:19:34.096Z,1016.60
2022-12-16T09:20:34.284Z,1016.65
2022-12-16T09:21:34.446Z,1016.65
2022-12-16T09:22:34.627Z,1016.63
2022-12-16T09:23:35.173Z,1016.64
2022-12-16T09:24:34.978Z,1016.63
2022-12-16T09:25:35.160Z,1016.73
2022-12-16T09:26:35.372Z,1016.72
2022-12-16T09:27:35.524Z,1016.73
2022-12-16T09:28:35.705Z,1016.75
2022-12-16T09:29:38.296Z,1016.75
2022-12-16T09:30:37.102Z,1016.77
2022-12-16T09:31:36.287Z,1016.80
2022-12-16T09:32:36.388Z,1016.84
2022-12-16T09:33:36.728Z,1016.83
2022-12-16T09:34:36.757Z,1016.81
2022-12-16T09:35:36.942Z,1016.81
2022-12-16T09:36:37.096Z,1016.83
2022-12-16T09:37:37.275Z,1016.83
2022-12-16T09:38:37.454Z,1016.83
2022-12-16T09:39:37.655Z,1016.89
2022-12-16T09:40:37.858Z,1016.88
2022-12-16T09:41:42.848Z,1016.93
2022-12-16T09:42:39.173Z,1016.89
2022-12-16T09:43:38.364Z,1016.90
2022-12-16T09:44:38.544Z,1016.89
2022-12-16T09:45:38.704Z,1016.88
2022-12-16T09:46:38.951Z,1016.85
2022-12-16T09:47:39.054Z,1016.84
2022-12-16T09:48:39.234Z,1016.86
2022-12-16T09:49:39.414Z,1016.84
2022-12-16T09:50:39.594Z,1016.84
2022-12-16T09:51:39.773Z,1016.80
2022-12-16T09:52:39.979Z,1016.86
2022-12-16T09:53:40.121Z,1016.88
2022-12-16T09:54:40.282Z,1016.88
2022-12-16T09:55:40.473Z,1016.87
2022-12-16T09:56:40.631Z,1016.85
2022-12-16T09:57:40.821Z,1016.88
2022-12-16T09:58:41.084Z,1016.88
2022-12-16T09:59:41.172Z,1016.90
2022-12-16T10:00:41.340Z,1016.87
2022-12-16T10:01:41.646Z,1016.87
2022-12-16T10:02:41.841Z,1016.92
2022-12-16T10:03:41.944Z,1016.88
2022-12-16T10:04:42.031Z,1016.83
2022-12-16T10:05:42.212Z,1016.86
2022-12-16T10:06:42.381Z,1016.90
2022-12-16T10:07:42.551Z,1016.86
2022-12-16T10:08:42.722Z,1016.85
2022-12-16T10:09:42.892Z,1016.84
2022-12-16T10:10:43.068Z,1016.83
2022-12-16T10:11:43.269Z,1016.75
2022-12-16T10:12:43.420Z,1016.82
2022-12-16T10:13:43.589Z,1016.77
2022-12-16T10:14:43.763Z,1016.78
2022-12-16T10:15:44.019Z,1016.80
2022-12-16T10:16:44.126Z,1016.82
2022-12-16T10:17:44.298Z,1016.80
2022-12-16T10:18:44.565Z,1016.79
2022-12-16T10:19:44.629Z,1016.78
2022-12-16T10:20:44.808Z,1016.77
2022-12-16T10:21:44.980Z,1016.78
2022-12-16T10:22:45.148Z,1016.79
2022-12-16T10:23:45.318Z,1016.78
2022-12-16T10:24:45.488Z,1016.79
2022-12-16T10:25:45.667Z,1016.76
2022-12-16T10:26:45.837Z,1016.75
2022-12-16T10:27:46.040Z,1016.73
2022-12-16T10:28:46.177Z,1016.72
2022-12-16T10:29:46.357Z,1016.76
2022-12-16T10:30:46.584Z,1016.77
2022-12-16T10:31:46.746Z,1016.75
2022-12-16T10:32:46.898Z,1016.77
2022-12-16T10:33:47.076Z,1016.84
2022-12-16T10:34:47.245Z,1016.80
2022-12-16T10:35:47.447Z,1016.82
2022-12-16T10:36:47.606Z,1016.79
2022-12-16T10:37:47.799Z,1016.86
2022-12-16T10:38:47.945Z,1016.90
2022-12-16T10:39:48.127Z,1016.87
2022-12-16T10:40:48.306Z,1016.87
2022-12-16T10:41:48.475Z,1016.89
2022-12-16T10:42:48.637Z,1016.94
2022-12-16T10:43:48.845Z,1016.92
2022-12-16T10:44:48.987Z,1016.89
2022-12-16T10:45:49.165Z,1016.92
2022-12-16T10:46:49.415Z,1016.90
2022-12-16T10:47:49.525Z,1016.90
2022-12-16T10:48:55.143Z,1016.96
2022-12-16T10:49:54.824Z,1016.97
2022-12-16T10:50:50.043Z,1016.96
2022-12-16T10:51:50.231Z,1016.97
2022-12-16T10:52:50.387Z,1016.98
2022-12-16T10:53:50.591Z,1016.99
2022-12-16T10:54:50.739Z,1017.01
2022-12-16T10:55:50.933Z,1017.01
2022-12-16T10:56:51.133Z,1017.02
2022-12-16T10:57:51.317Z,1017.04
2022-12-16T10:58:51.467Z,1017.03
2022-12-16T10:59:51.627Z,1017.04
2022-12-16T11:00:51.801Z,1017.07
2022-12-16T11:01:52.114Z,1017.07
2022-12-16T11:02:52.269Z,1017.07
2022-12-16T11:03:52.392Z,1017.08
2022-12-16T11:04:52.521Z,1017.09
2022-12-16T11:05:52.720Z,1017.12
2022-12-16T11:06:52.860Z,1017.05
2022-12-16T11:07:53.049Z,1017.06
2022-12-16T11:08:53.232Z,1017.10
2022-12-16T11:09:53.382Z,1017.02
2022-12-16T11:10:53.581Z,1016.99
2022-12-16T11:11:53.754Z,1017.00
2022-12-16T11:12:53.930Z,1016.95
2022-12-16T11:13:54.099Z,1016.98
2022-12-16T11:15:20.182Z,1017.00
2022-12-16T11:15:55.595Z,1016.99
2022-12-16T11:16:54.629Z,1017.00
2022-12-16T11:17:54.819Z,1017.03
2022-12-16T11:18:54.939Z,1016.97
2022-12-16T11:19:55.109Z,1016.98
2022-12-16T11:20:55.387Z,1016.98
2022-12-16T11:21:55.460Z,1017.06
2022-12-16T11:22:55.648Z,1017.06
2022-12-16T11:23:55.814Z,1017.02
2022-12-16T11:24:55.972Z,1016.97
2022-12-16T11:25:56.160Z,1016.96
2022-12-16T11:26:56.316Z,1016.97
2022-12-16T11:27:56.478Z,1016.98
2022-12-16T11:28:56.638Z,1016.98
2022-12-16T11:29:56.851Z,1016.98
2022-12-16T11:30:57.042Z,1016.95
2022-12-16T11:31:59.829Z,1016.93
2022-12-16T11:32:57.347Z,1016.99
2022-12-16T11:33:57.519Z,1017.03
2022-12-16T11:34:57.702Z,1017.07
2022-12-16T11:35:57.881Z,1017.12
2022-12-16T11:36:58.039Z,1017.11
2022-12-16T11:37:58.206Z,1017.13
2022-12-16T11:38:58.365Z,1017.13
2022-12-16T11:39:58.545Z,1017.13
2022-12-16T11:40:58.736Z,1017.09
2022-12-16T11:41:58.993Z,1017.08
2022-12-16T11:43:04.352Z,1017.12
2022-12-16T11:44:00.242Z,1017.21
2022-12-16T11:44:59.414Z,1017.18
2022-12-16T11:45:59.592Z,1017.18
2022-12-16T11:46:59.829Z,1017.17
2022-12-16T11:47:59.924Z,1017.12
2022-12-16T11:49:00.105Z,1017.19
2022-12-16T11:50:00.255Z,1017.15
2022-12-16T11:51:00.456Z,1017.14
2022-12-16T11:52:21.216Z,1017.15
2022-12-16T11:53:01.793Z,1017.13
2022-12-16T11:54:00.975Z,1017.19
2022-12-16T11:55:01.162Z,1017.20
2022-12-16T11:56:08.975Z,1017.22
2022-12-16T11:57:02.533Z,1017.20
2022-12-16T11:58:01.663Z,1017.24
2022-12-16T11:59:01.822Z,1017.29
2022-12-16T12:00:02.003Z,1017.24
2022-12-16T12:01:02.204Z,1017.25
2022-12-16T12:02:02.423Z,1017.24
2022-12-16T12:03:02.539Z,1017.28
2022-12-16T12:04:02.800Z,1017.25
2022-12-16T12:05:02.843Z,1017.27
2022-12-16T12:06:03.022Z,1017.24
2022-12-16T12:07:03.191Z,1017.21
2022-12-16T12:08:03.408Z,1017.25